createdAt,value
2023-08-15T00:00:48.928Z,21.01
2023-08-15T00:01:48.908Z,20.90
2023-08-15T00:02:49.020Z,20.97
2023-08-15T00:03:48.908Z,21.08
2023-08-15T00:04:48.895Z,20.97
2023-08-15T00:05:48.856Z,21.06
2023-08-15T00:06:48.837Z,21.01
2023-08-15T00:07:48.844Z,20.91
2023-08-15T00:08:48.816Z,21.03
2023-08-15T00:09:48.833Z,21.08
2023-08-15T00:10:48.797Z,21.01
2023-08-15T00:11:48.801Z,21.01
2023-08-15T00:12:48.777Z,21.00
2023-08-15T00:13:48.818Z,21.06
2023-08-15T00:14:48.786Z,21.01
2023-08-15T00:15:48.761Z,21.01
2023-08-15T00:16:48.788Z,21.03
2023-08-15T00:17:48.779Z,21.03
2023-08-15T00:18:48.757Z,21.01
2023-08-15T00:19:48.725Z,20.98
2023-08-15T00:20:48.709Z,20.98
2023-08-15T00:21:48.704Z,21.01
2023-08-15T00:22:48.709Z,21.09
2023-08-15T00:23:48.711Z,21.08
2023-08-15T00:24:48.662Z,21.13
2023-08-15T00:25:48.662Z,21.13
2023-08-15T00:26:48.664Z,21.01
2023-08-15T00:27:48.650Z,21.09
2023-08-15T00:28:48.651Z,21.08
2023-08-15T00:29:48.630Z,21.05
2023-08-15T00:30:48.629Z,21.09
2023-08-15T00:31:48.604Z,21.08
2023-08-15T00:32:48.674Z,21.08
2023-08-15T00:33:48.623Z,21.06
2023-08-15T00:34:48.580Z,21.05
2023-08-15T00:35:48.569Z,21.01
2023-08-15T00:36:48.535Z,21.01
2023-08-15T00:37:48.590Z,21.05
2023-08-15T00:38:48.556Z,21.01
2023-08-15T00:39:48.533Z,21.09
2023-08-15T00:40:48.507Z,20.88
2023-08-15T00:41:48.514Z,21.01
2023-08-15T00:42:48.525Z,20.94
2023-08-15T00:43:48.480Z,20.98
2023-08-15T00:44:48.508Z,20.93
2023-08-15T00:45:48.490Z,20.88
2023-08-15T00:46:48.484Z,21.01
2023-08-15T00:47:48.527Z,20.98
2023-08-15T00:48:48.428Z,20.90
2023-08-15T00:49:48.431Z,20.91
2023-08-15T00:51:21.990Z,20.93
2023-08-15T00:51:51.004Z,20.93
2023-08-15T00:52:48.392Z,20.87
2023-08-15T00:53:48.393Z,20.94
2023-08-15T00:54:48.386Z,20.91
2023-08-15T00:55:48.410Z,20.93
2023-08-15T00:56:48.378Z,20.91
2023-08-15T00:57:48.386Z,20.91
2023-08-15T00:58:48.378Z,20.88
2023-08-15T00:59:48.351Z,20.83
2023-08-15T01:00:48.335Z,20.83
2023-08-15T01:01:48.421Z,20.83
2023-08-15T01:02:49.424Z,20.82
2023-08-15T01:03:48.350Z,20.82
2023-08-15T01:04:48.298Z,20.76
2023-08-15T01:05:48.301Z,20.72
2023-08-15T01:06:48.267Z,20.83
2023-08-15T01:07:48.254Z,20.78
2023-08-15T01:08:48.270Z,20.63
2023-08-15T01:09:48.245Z,20.69
2023-08-15T01:10:48.250Z,20.69
2023-08-15T01:11:48.206Z,20.73
2023-08-15T01:12:48.217Z,20.73
2023-08-15T01:13:48.192Z,20.68
2023-08-15T01:14:48.212Z,20.75
2023-08-15T01:15:48.251Z,20.78
2023-08-15T01:16:48.173Z,20.58
2023-08-15T01:17:48.228Z,20.69
2023-08-15T01:18:48.152Z,20.64
2023-08-15T01:19:48.205Z,20.69
2023-08-15T01:20:48.145Z,20.71
2023-08-15T01:21:48.208Z,20.68
2023-08-15T01:22:48.144Z,20.72
2023-08-15T01:23:48.109Z,20.57
2023-08-15T01:24:48.229Z,20.64
2023-08-15T01:25:48.078Z,20.64
2023-08-15T01:26:48.076Z,20.53
2023-08-15T01:27:48.050Z,20.69
2023-08-15T01:28:48.058Z,20.61
2023-08-15T01:29:48.079Z,20.60
2023-08-15T01:30:48.029Z,20.58
2023-08-15T01:31:48.035Z,20.64
2023-08-15T01:32:48.064Z,20.51
2023-08-15T01:33:48.027Z,20.51
2023-08-15T01:34:48.002Z,20.48
2023-08-15T01:35:47.996Z,20.50
2023-08-15T01:36:47.980Z,20.42
2023-08-15T01:37:47.964Z,20.38
2023-08-15T01:38:47.970Z,20.38
2023-08-15T01:39:47.939Z,20.41
2023-08-15T01:40:47.939Z,20.34
2023-08-15T01:41:47.923Z,20.38
2023-08-15T01:42:47.928Z,20.37
2023-08-15T01:43:47.929Z,20.40
2023-08-15T01:44:47.896Z,20.42
2023-08-15T01:45:47.917Z,20.34
2023-08-15T01:46:47.929Z,20.41
2023-08-15T01:47:47.926Z,20.41
2023-08-15T01:48:47.855Z,20.42
2023-08-15T01:49:47.839Z,20.35
2023-08-15T01:50:47.833Z,20.37
2023-08-15T01:51:47.847Z,20.33
2023-08-15T01:52:47.830Z,20.44
2023-08-15T01:53:47.804Z,20.35
2023-08-15T01:54:47.798Z,20.42
2023-08-15T01:55:47.776Z,20.40
2023-08-15T01:56:47.813Z,20.48
2023-08-15T01:57:47.777Z,20.38
2023-08-15T01:58:47.755Z,20.37
2023-08-15T01:59:47.741Z,20.33
2023-08-15T02:00:47.752Z,20.35
2023-08-15T02:01:47.813Z,20.37
2023-08-15T02:02:47.772Z,20.33
2023-08-15T02:03:47.696Z,20.40
2023-08-15T02:04:47.701Z,20.31
2023-08-15T02:05:47.713Z,20.35
2023-08-15T02:06:47.691Z,20.34
2023-08-15T02:07:47.655Z,20.40
2023-08-15T02:08:47.667Z,20.37
2023-08-15T02:09:47.647Z,20.38
2023-08-15T02:10:47.661Z,20.37
2023-08-15T02:11:47.653Z,20.35
2023-08-15T02:12:47.658Z,20.30
2023-08-15T02:13:47.607Z,20.35
2023-08-15T02:14:47.608Z,20.30
2023-08-15T02:15:47.657Z,20.26
2023-08-15T02:16:47.600Z,20.25
2023-08-15T02:17:47.604Z,20.23
2023-08-15T02:18:47.567Z,20.22
2023-08-15T02:19:47.560Z,20.30
2023-08-15T02:20:47.575Z,20.23
2023-08-15T02:21:47.529Z,20.22
2023-08-15T02:22:47.538Z,20.19
2023-08-15T02:23:47.487Z,20.20
2023-08-15T02:24:47.504Z,20.16
2023-08-15T02:25:47.506Z,20.16
2023-08-15T02:26:47.498Z,20.02
2023-08-15T02:27:47.473Z,20.07
2023-08-15T02:28:47.464Z,20.04
2023-08-15T02:29:47.493Z,20.02
2023-08-15T02:30:47.446Z,20.08
2023-08-15T02:31:47.435Z,20.05
2023-08-15T02:32:47.449Z,20.10
2023-08-15T02:33:47.408Z,20.07
2023-08-15T02:34:47.433Z,20.08
2023-08-15T02:35:47.430Z,20.02
2023-08-15T02:36:47.417Z,20.12
2023-08-15T02:37:47.366Z,20.17
2023-08-15T02:38:48.382Z,20.04
2023-08-15T02:39:47.554Z,20.04
2023-08-15T02:40:47.350Z,20.12
2023-08-15T02:41:47.334Z,20.16
2023-08-15T02:42:47.317Z,20.10
2023-08-15T02:43:47.317Z,20.07
2023-08-15T02:44:47.312Z,20.10
2023-08-15T02:45:47.322Z,20.12
2023-08-15T02:46:47.311Z,20.10
2023-08-15T02:47:47.344Z,20.08
2023-08-15T02:48:47.291Z,20.02
2023-08-15T02:49:47.262Z,20.02
2023-08-15T02:50:47.260Z,20.00
2023-08-15T02:51:47.229Z,20.04
2023-08-15T02:52:47.264Z,20.00
2023-08-15T02:53:47.246Z,20.07
2023-08-15T02:54:47.220Z,20.08
2023-08-15T02:55:47.201Z,20.01
2023-08-15T02:56:47.195Z,20.12
2023-08-15T02:57:47.206Z,20.05
2023-08-15T02:58:47.177Z,20.15
2023-08-15T02:59:47.167Z,20.05
2023-08-15T03:00:47.254Z,20.04
2023-08-15T03:01:47.271Z,20.10
2023-08-15T03:02:47.162Z,20.04
2023-08-15T03:03:47.115Z,20.05
2023-08-15T03:04:47.111Z,20.07
2023-08-15T03:05:47.102Z,20.05
2023-08-15T03:06:47.121Z,19.94
2023-08-15T03:07:47.073Z,19.87
2023-08-15T03:08:47.076Z,19.89
2023-08-15T03:09:47.098Z,19.97
2023-08-15T03:10:47.061Z,19.98
2023-08-15T03:11:47.061Z,19.87
2023-08-15T03:12:47.203Z,19.94
2023-08-15T03:13:47.033Z,19.97
2023-08-15T03:14:47.011Z,20.02
2023-08-15T03:15:47.026Z,20.10
2023-08-15T03:16:47.098Z,19.95
2023-08-15T03:17:47.027Z,19.92
2023-08-15T03:18:46.957Z,20.02
2023-08-15T03:19:46.984Z,20.08
2023-08-15T03:20:46.981Z,20.01
2023-08-15T03:21:46.971Z,20.10
2023-08-15T03:22:46.942Z,20.01
2023-08-15T03:23:46.937Z,19.95
2023-08-15T03:24:46.959Z,19.97
2023-08-15T03:25:47.013Z,20.08
2023-08-15T03:26:46.905Z,19.79
2023-08-15T03:27:46.899Z,19.78
2023-08-15T03:28:46.898Z,19.55
2023-08-15T03:29:46.894Z,19.45
2023-08-15T03:30:46.966Z,19.27
2023-08-15T03:31:46.896Z,19.21
2023-08-15T03:32:46.883Z,19.23
2023-08-15T03:33:46.868Z,19.16
2023-08-15T03:34:46.831Z,19.27
2023-08-15T03:35:46.828Z,19.32
2023-08-15T03:36:46.812Z,19.40
2023-08-15T03:37:46.794Z,19.42
2023-08-15T03:38:46.788Z,19.46
2023-08-15T03:39:46.785Z,19.40
2023-08-15T03:40:46.768Z,19.47
2023-08-15T03:41:46.775Z,19.57
2023-08-15T03:42:46.746Z,19.52
2023-08-15T03:43:46.748Z,19.60
2023-08-15T03:44:46.761Z,19.58
2023-08-15T03:45:46.781Z,19.62
2023-08-15T03:46:46.731Z,19.67
2023-08-15T03:47:46.750Z,19.68
2023-08-15T03:48:46.687Z,19.76
2023-08-15T03:49:46.694Z,19.76
2023-08-15T03:50:46.667Z,19.70
2023-08-15T03:51:47.707Z,19.76
2023-08-15T03:52:47.637Z,19.82
2023-08-15T03:53:46.689Z,19.83
2023-08-15T03:54:46.630Z,19.82
2023-08-15T03:55:46.633Z,19.82
2023-08-15T03:56:46.613Z,19.83
2023-08-15T03:57:46.622Z,19.85
2023-08-15T03:58:46.612Z,19.83
2023-08-15T03:59:46.599Z,19.82
2023-08-15T04:00:46.561Z,19.83
2023-08-15T04:01:46.623Z,19.87
2023-08-15T04:02:46.569Z,19.89
2023-08-15T04:03:46.582Z,19.82
2023-08-15T04:04:47.520Z,19.86
2023-08-15T04:05:46.522Z,19.98
2023-08-15T04:06:46.504Z,19.94
2023-08-15T04:07:46.510Z,19.97
2023-08-15T04:08:46.494Z,19.92
2023-08-15T04:09:46.511Z,20.01
2023-08-15T04:10:46.473Z,20.01
2023-08-15T04:11:46.470Z,20.07
2023-08-15T04:12:46.477Z,20.08
2023-08-15T04:13:46.448Z,20.01
2023-08-15T04:14:46.447Z,20.08
2023-08-15T04:15:46.432Z,20.12
2023-08-15T04:16:49.053Z,20.05
2023-08-15T04:17:47.421Z,20.10
2023-08-15T04:18:46.412Z,20.07
2023-08-15T04:19:46.382Z,20.10
2023-08-15T04:20:46.374Z,20.05
2023-08-15T04:21:46.369Z,20.13
2023-08-15T04:22:46.475Z,20.15
2023-08-15T04:23:46.382Z,20.17
2023-08-15T04:24:46.341Z,20.20
2023-08-15T04:25:46.347Z,20.23
2023-08-15T04:26:46.326Z,20.30
2023-08-15T04:27:46.310Z,20.26
2023-08-15T04:28:46.311Z,20.26
2023-08-15T04:29:46.300Z,20.33
2023-08-15T04:30:46.293Z,20.31
2023-08-15T04:31:46.359Z,20.40
2023-08-15T04:32:46.397Z,20.31
2023-08-15T04:33:46.248Z,20.41
2023-08-15T04:34:47.041Z,20.48
2023-08-15T04:35:46.276Z,20.53
2023-08-15T04:36:46.265Z,20.51
2023-08-15T04:37:46.207Z,20.54
2023-08-15T04:38:46.198Z,20.56
2023-08-15T04:39:46.202Z,20.58
2023-08-15T04:40:46.259Z,20.60
2023-08-15T04:41:46.177Z,20.68
2023-08-15T04:42:46.164Z,20.64
2023-08-15T04:43:46.153Z,20.72
2023-08-15T04:44:46.189Z,20.69
2023-08-15T04:45:46.159Z,20.75
2023-08-15T04:46:46.115Z,20.78
2023-08-15T04:47:46.136Z,20.79
2023-08-15T04:48:46.090Z,20.75
2023-08-15T04:49:47.531Z,20.79
2023-08-15T04:50:46.083Z,20.82
2023-08-15T04:51:46.077Z,20.85
2023-08-15T04:52:46.058Z,20.87
2023-08-15T04:53:46.066Z,20.83
2023-08-15T04:54:46.068Z,20.83
2023-08-15T04:55:47.021Z,20.68
2023-08-15T04:56:46.012Z,20.78
2023-08-15T04:57:46.033Z,20.69
2023-08-15T04:58:46.012Z,20.71
2023-08-15T04:59:45.996Z,20.76
2023-08-15T05:00:45.969Z,20.83
2023-08-15T05:01:45.986Z,20.85
2023-08-15T05:02:46.020Z,20.79
2023-08-15T05:03:46.280Z,20.88
2023-08-15T05:04:45.934Z,20.78
2023-08-15T05:05:45.980Z,20.90
2023-08-15T05:06:45.925Z,20.88
2023-08-15T05:07:45.923Z,20.83
2023-08-15T05:08:45.922Z,20.73
2023-08-15T05:09:45.898Z,20.64
2023-08-15T05:10:45.878Z,20.57
2023-08-15T05:11:45.870Z,20.44
2023-08-15T05:12:45.953Z,20.51
2023-08-15T05:13:45.858Z,20.46
2023-08-15T05:14:45.853Z,20.46
2023-08-15T05:15:45.887Z,20.50
2023-08-15T05:16:45.846Z,20.51
2023-08-15T05:17:45.873Z,20.44
2023-08-15T05:18:45.819Z,20.41
2023-08-15T05:19:45.794Z,20.37
2023-08-15T05:20:45.797Z,20.41
2023-08-15T05:21:45.836Z,20.35
2023-08-15T05:22:45.915Z,20.34
2023-08-15T05:23:45.764Z,20.33
2023-08-15T05:24:45.771Z,20.27
2023-08-15T05:25:45.781Z,20.27
2023-08-15T05:26:45.747Z,20.35
2023-08-15T05:27:45.741Z,20.27
2023-08-15T05:28:47.274Z,20.26
2023-08-15T05:29:45.710Z,20.26
2023-08-15T05:30:45.707Z,20.33
2023-08-15T05:31:45.706Z,20.30
2023-08-15T05:32:46.841Z,20.37
2023-08-15T05:33:45.675Z,20.30
2023-08-15T05:34:45.643Z,20.37
2023-08-15T05:35:45.663Z,20.35
2023-08-15T05:36:45.655Z,20.41
2023-08-15T05:37:45.637Z,20.37
2023-08-15T05:38:45.607Z,20.34
2023-08-15T05:39:45.609Z,20.42
2023-08-15T05:40:45.588Z,20.16
2023-08-15T05:41:45.594Z,19.94
2023-08-15T05:42:45.759Z,19.86
2023-08-15T05:43:45.601Z,19.70
2023-08-15T05:44:45.546Z,19.70
2023-08-15T05:45:45.553Z,19.71
2023-08-15T05:46:45.560Z,19.82
2023-08-15T05:47:45.547Z,19.85
2023-08-15T05:48:45.510Z,19.92
2023-08-15T05:49:45.510Z,19.90
2023-08-15T05:50:45.512Z,19.78
2023-08-15T05:51:45.461Z,19.72
2023-08-15T05:52:45.464Z,19.75
2023-08-15T05:53:45.450Z,19.89
2023-08-15T05:54:45.471Z,19.97
2023-08-15T05:55:45.455Z,20.02
2023-08-15T05:56:45.423Z,19.82
2023-08-15T05:57:45.400Z,19.86
2023-08-15T05:58:45.403Z,19.68
2023-08-15T05:59:45.451Z,19.76
2023-08-15T06:00:45.397Z,19.72
2023-08-15T06:01:45.391Z,19.53
2023-08-15T06:02:46.417Z,19.20
2023-08-15T06:03:52.560Z,19.17
2023-08-15T06:04:47.379Z,19.07
2023-08-15T06:05:45.321Z,19.01
2023-08-15T06:06:45.333Z,19.12
2023-08-15T06:07:45.310Z,19.27
2023-08-15T06:08:45.332Z,19.27
2023-08-15T06:09:45.293Z,19.39
2023-08-15T06:10:45.285Z,19.65
2023-08-15T06:11:45.291Z,19.71
2023-08-15T06:12:45.258Z,19.78
2023-08-15T06:13:45.269Z,19.90
2023-08-15T06:14:45.239Z,19.82
2023-08-15T06:15:45.241Z,19.83
2023-08-15T06:16:45.303Z,20.05
2023-08-15T06:17:45.284Z,20.04
2023-08-15T06:18:45.248Z,20.20
2023-08-15T06:19:45.210Z,19.98
2023-08-15T06:20:45.193Z,20.04
2023-08-15T06:21:45.182Z,20.23
2023-08-15T06:22:45.185Z,20.22
2023-08-15T06:23:45.167Z,20.22
2023-08-15T06:24:45.200Z,20.26
2023-08-15T06:25:45.137Z,20.25
2023-08-15T06:26:45.151Z,20.13
2023-08-15T06:27:45.132Z,20.30
2023-08-15T06:28:45.124Z,20.23
2023-08-15T06:29:45.098Z,20.31
2023-08-15T06:30:45.103Z,20.16
2023-08-15T06:31:45.144Z,19.95
2023-08-15T06:32:45.110Z,19.97
2023-08-15T06:33:45.080Z,19.98
2023-08-15T06:34:45.103Z,19.98
2023-08-15T06:35:45.042Z,20.04
2023-08-15T06:36:45.043Z,20.23
2023-08-15T06:37:45.012Z,20.35
2023-08-15T06:38:45.019Z,20.58
2023-08-15T06:39:44.992Z,20.58
2023-08-15T06:40:44.995Z,20.50
2023-08-15T06:41:45.005Z,20.44
2023-08-15T06:42:44.982Z,20.30
2023-08-15T06:43:44.951Z,20.22
2023-08-15T06:44:45.021Z,20.04
2023-08-15T06:45:44.967Z,20.10
2023-08-15T06:46:45.034Z,20.19
2023-08-15T06:47:44.950Z,20.26
2023-08-15T06:48:44.920Z,20.44
2023-08-15T06:49:44.885Z,20.33
2023-08-15T06:50:46.682Z,20.08
2023-08-15T06:51:44.875Z,20.23
2023-08-15T06:52:44.878Z,20.40
2023-08-15T06:53:44.903Z,20.46
2023-08-15T06:54:44.886Z,20.75
2023-08-15T06:55:44.853Z,20.91
2023-08-15T06:56:44.827Z,21.13
2023-08-15T06:57:44.827Z,20.88
2023-08-15T06:58:44.823Z,20.87
2023-08-15T06:59:44.887Z,20.88
2023-08-15T07:00:44.834Z,20.88
2023-08-15T07:01:45.120Z,20.83
2023-08-15T07:02:44.809Z,20.98
2023-08-15T07:03:44.910Z,21.52
2023-08-15T07:04:44.754Z,21.73
2023-08-15T07:05:44.738Z,21.99
2023-08-15T07:06:44.725Z,22.49
2023-08-15T07:07:44.745Z,22.89
2023-08-15T07:08:44.741Z,22.36
2023-08-15T07:09:44.725Z,21.86
2023-08-15T07:10:44.691Z,22.23
2023-08-15T07:11:44.692Z,22.45
2023-08-15T07:12:46.635Z,22.21
2023-08-15T07:13:45.668Z,22.23
2023-08-15T07:14:44.653Z,22.44
2023-08-15T07:15:44.632Z,22.74
2023-08-15T07:16:44.738Z,23.59
2023-08-15T07:17:44.627Z,23.57
2023-08-15T07:18:44.644Z,23.07
2023-08-15T07:19:44.617Z,22.45
2023-08-15T07:20:44.587Z,22.64
2023-08-15T07:21:44.569Z,22.93
2023-08-15T07:22:44.582Z,23.23
2023-08-15T07:23:44.588Z,23.72
2023-08-15T07:24:44.580Z,23.82
2023-08-15T07:25:44.566Z,23.94
2023-08-15T07:26:44.535Z,24.06
2023-08-15T07:27:44.537Z,23.79
2023-08-15T07:28:44.515Z,23.87
2023-08-15T07:29:45.494Z,23.71
2023-08-15T07:30:44.521Z,23.72
2023-08-15T07:31:44.506Z,23.71
2023-08-15T07:32:44.547Z,23.67
2023-08-15T07:33:44.474Z,23.64
2023-08-15T07:34:44.496Z,23.60
2023-08-15T07:35:44.448Z,23.57
2023-08-15T07:36:44.466Z,23.49
2023-08-15T07:37:44.445Z,23.37
2023-08-15T07:38:44.467Z,22.96
2023-08-15T07:39:44.399Z,22.88
2023-08-15T07:40:44.398Z,22.86
2023-08-15T07:41:44.473Z,23.07
2023-08-15T07:42:44.388Z,23.14
2023-08-15T07:43:45.398Z,23.14
2023-08-15T07:44:44.358Z,23.09
2023-08-15T07:45:44.386Z,23.14
2023-08-15T07:46:44.346Z,23.21
2023-08-15T07:47:44.335Z,23.07
2023-08-15T07:48:44.316Z,23.03
2023-08-15T07:49:44.350Z,22.85
2023-08-15T07:50:44.311Z,22.86
2023-08-15T07:51:44.299Z,23.18
2023-08-15T07:52:44.288Z,23.47
2023-08-15T07:53:44.277Z,23.69
2023-08-15T07:54:44.262Z,23.92
2023-08-15T07:55:44.260Z,24.08
2023-08-15T07:56:44.236Z,24.08
2023-08-15T07:57:44.224Z,24.08
2023-08-15T07:58:44.229Z,24.14
2023-08-15T07:59:44.231Z,23.93
2023-08-15T08:00:44.270Z,23.77
2023-08-15T08:01:44.256Z,23.75
2023-08-15T08:02:44.181Z,23.72
2023-08-15T08:03:44.178Z,23.67
2023-08-15T08:04:44.212Z,23.69
2023-08-15T08:05:44.244Z,23.72
2023-08-15T08:06:44.173Z,23.68
2023-08-15T08:07:44.143Z,23.72
2023-08-15T08:08:44.139Z,23.69
2023-08-15T08:09:44.137Z,23.79
2023-08-15T08:10:44.130Z,23.90
2023-08-15T08:11:44.098Z,23.86
2023-08-15T08:12:44.173Z,23.99
2023-08-15T08:13:44.103Z,24.04
2023-08-15T08:14:48.790Z,23.99
2023-08-15T08:15:46.166Z,23.96
2023-08-15T08:16:44.064Z,24.00
2023-08-15T08:17:44.042Z,23.96
2023-08-15T08:18:44.082Z,24.05
2023-08-15T08:19:44.019Z,24.00
2023-08-15T08:20:44.036Z,24.00
2023-08-15T08:21:43.987Z,23.86
2023-08-15T08:22:43.981Z,23.89
2023-08-15T08:23:43.995Z,23.89
2023-08-15T08:24:43.966Z,23.89
2023-08-15T08:25:43.995Z,24.00
2023-08-15T08:26:43.981Z,23.87
2023-08-15T08:27:43.939Z,23.77
2023-08-15T08:28:43.934Z,23.82
2023-08-15T08:29:43.904Z,23.77
2023-08-15T08:30:43.911Z,23.79
2023-08-15T08:31:43.964Z,23.78
2023-08-15T08:32:43.925Z,23.94
2023-08-15T08:33:43.896Z,23.97
2023-08-15T08:34:43.868Z,24.02
2023-08-15T08:35:43.851Z,24.09
2023-08-15T08:36:43.847Z,24.06
2023-08-15T08:37:43.875Z,24.21
2023-08-15T08:38:43.833Z,24.30
2023-08-15T08:39:43.866Z,24.26
2023-08-15T08:40:43.817Z,24.31
2023-08-15T08:41:43.823Z,24.39
2023-08-15T08:42:43.796Z,24.46
2023-08-15T08:43:43.791Z,24.53
2023-08-15T08:44:43.769Z,24.60
2023-08-15T08:45:43.854Z,24.63
2023-08-15T08:46:43.756Z,24.71
2023-08-15T08:47:43.780Z,24.79
2023-08-15T08:48:43.766Z,24.82
2023-08-15T08:49:43.751Z,24.79
2023-08-15T08:50:43.708Z,24.90
2023-08-15T08:51:43.713Z,24.86
2023-08-15T08:52:43.705Z,24.60
2023-08-15T08:53:43.672Z,24.45
2023-08-15T08:54:56.627Z,24.66
2023-08-15T08:55:45.658Z,24.77
2023-08-15T08:56:43.688Z,24.86
2023-08-15T08:57:43.653Z,24.93
2023-08-15T08:58:43.695Z,24.94
2023-08-15T08:59:44.647Z,25.04
2023-08-15T09:00:43.622Z,25.09
2023-08-15T09:01:43.667Z,25.20
2023-08-15T09:02:43.719Z,25.14
2023-08-15T09:03:43.609Z,25.17
2023-08-15T09:04:43.580Z,25.26
2023-08-15T09:05:43.587Z,25.19
2023-08-15T09:06:43.564Z,25.23
2023-08-15T09:07:43.560Z,25.19
2023-08-15T09:08:43.527Z,25.26
2023-08-15T09:09:43.529Z,25.34
2023-08-15T09:10:43.537Z,25.34
2023-08-15T09:11:43.538Z,25.34
2023-08-15T09:12:43.496Z,25.30
2023-08-15T09:13:43.487Z,25.29
2023-08-15T09:14:44.024Z,25.30
2023-08-15T09:15:43.510Z,25.31
2023-08-15T09:16:43.461Z,25.26
2023-08-15T09:17:43.522Z,25.19
2023-08-15T09:18:43.430Z,25.23
2023-08-15T09:19:43.441Z,25.19
2023-08-15T09:20:43.423Z,25.14
2023-08-15T09:21:43.432Z,25.30
2023-08-15T09:22:43.405Z,25.29
2023-08-15T09:23:43.427Z,25.35
2023-08-15T09:24:43.721Z,25.44
2023-08-15T09:25:43.420Z,25.49
2023-08-15T09:26:43.360Z,25.49
2023-08-15T09:27:43.366Z,25.45
2023-08-15T09:28:43.339Z,25.41
2023-08-15T09:29:43.348Z,25.42
2023-08-15T09:30:43.318Z,25.44
2023-08-15T09:31:43.369Z,25.57
2023-08-15T09:32:43.352Z,25.48
2023-08-15T09:33:43.323Z,25.49
2023-08-15T09:34:43.289Z,25.54
2023-08-15T09:35:56.673Z,25.59
2023-08-15T09:36:43.295Z,25.54
2023-08-15T09:37:43.265Z,25.54
2023-08-15T09:38:43.332Z,25.56
2023-08-15T09:39:43.218Z,25.61
2023-08-15T09:40:43.244Z,25.53
2023-08-15T09:41:43.264Z,25.49
2023-08-15T09:42:43.210Z,25.56
2023-08-15T09:43:43.177Z,25.64
2023-08-15T09:44:43.170Z,25.64
2023-08-15T09:45:43.156Z,25.67
2023-08-15T09:46:43.205Z,25.69
2023-08-15T09:47:43.276Z,25.71
2023-08-15T09:48:43.171Z,25.76
2023-08-15T09:49:43.139Z,25.74
2023-08-15T09:50:43.164Z,25.86
2023-08-15T09:51:43.134Z,25.82
2023-08-15T09:52:43.195Z,25.85
2023-08-15T09:53:43.112Z,25.89
2023-08-15T09:54:43.080Z,25.90
2023-08-15T09:55:43.090Z,26.09
2023-08-15T09:56:43.084Z,26.01
2023-08-15T09:57:43.047Z,26.19
2023-08-15T09:58:43.086Z,26.19
2023-08-15T09:59:43.035Z,26.23
2023-08-15T10:00:43.112Z,26.31
2023-08-15T10:01:43.070Z,26.42
2023-08-15T10:02:43.058Z,26.49
2023-08-15T10:03:43.019Z,26.53
2023-08-15T10:04:43.040Z,26.59
2023-08-15T10:05:42.997Z,26.65
2023-08-15T10:06:42.990Z,26.66
2023-08-15T10:07:42.984Z,26.78
2023-08-15T10:08:42.949Z,26.81
2023-08-15T10:09:42.953Z,26.88
2023-08-15T10:10:42.943Z,26.93
2023-08-15T10:11:42.923Z,27.12
2023-08-15T10:12:43.940Z,27.05
2023-08-15T10:13:42.898Z,27.09
2023-08-15T10:14:42.883Z,26.96
2023-08-15T10:15:42.913Z,26.96
2023-08-15T10:16:42.921Z,27.03
2023-08-15T10:17:42.985Z,27.13
2023-08-15T10:18:42.928Z,27.13
2023-08-15T10:19:42.893Z,27.16
2023-08-15T10:20:42.834Z,27.18
2023-08-15T10:21:42.813Z,27.21
2023-08-15T10:22:42.810Z,27.18
2023-08-15T10:23:42.787Z,27.12
2023-08-15T10:24:42.860Z,27.24
2023-08-15T10:25:42.778Z,27.20
2023-08-15T10:26:42.777Z,27.30
2023-08-15T10:27:42.749Z,27.34
2023-08-15T10:28:42.754Z,27.35
2023-08-15T10:29:42.763Z,27.43
2023-08-15T10:30:42.977Z,27.53
2023-08-15T10:31:42.750Z,27.62
2023-08-15T10:32:42.722Z,27.76
2023-08-15T10:33:42.717Z,27.81
2023-08-15T10:34:42.719Z,27.76
2023-08-15T10:35:42.703Z,27.90
2023-08-15T10:36:42.731Z,27.95
2023-08-15T10:37:42.761Z,28.03
2023-08-15T10:38:43.665Z,28.08
2023-08-15T10:39:42.684Z,28.21
2023-08-15T10:40:42.701Z,28.15
2023-08-15T10:41:42.646Z,28.23
2023-08-15T10:42:42.610Z,28.36
2023-08-15T10:43:42.650Z,28.50
2023-08-15T10:44:42.588Z,28.54
2023-08-15T10:45:42.607Z,28.64
2023-08-15T10:46:42.602Z,28.73
2023-08-15T10:47:42.737Z,28.57
2023-08-15T10:48:51.733Z,28.39
2023-08-15T10:49:44.559Z,28.73
2023-08-15T10:50:42.575Z,28.64
2023-08-15T10:51:42.547Z,28.69
2023-08-15T10:52:42.540Z,28.91
2023-08-15T10:53:42.522Z,29.08
2023-08-15T10:54:42.498Z,29.26
2023-08-15T10:55:42.570Z,29.27
2023-08-15T10:56:42.490Z,29.26
2023-08-15T10:57:42.488Z,29.32
2023-08-15T10:58:43.014Z,29.42
2023-08-15T10:59:42.462Z,29.49
2023-08-15T11:00:42.449Z,29.62
2023-08-15T11:01:42.556Z,29.70
2023-08-15T11:02:42.457Z,29.79
2023-08-15T11:03:42.460Z,29.91
2023-08-15T11:04:43.008Z,29.85
2023-08-15T11:05:42.399Z,29.92
2023-08-15T11:06:42.406Z,29.82
2023-08-15T11:07:42.388Z,30.01
2023-08-15T11:08:42.384Z,30.03
2023-08-15T11:09:42.363Z,30.08
2023-08-15T11:10:42.621Z,30.32
2023-08-15T11:11:42.436Z,30.36
2023-08-15T11:12:42.352Z,30.44
2023-08-15T11:13:42.328Z,30.56
2023-08-15T11:14:42.332Z,30.61
2023-08-15T11:15:42.423Z,30.63
2023-08-15T11:16:42.363Z,30.67
2023-08-15T11:17:42.300Z,30.70
2023-08-15T11:18:42.283Z,30.83
2023-08-15T11:19:42.288Z,30.63
2023-08-15T11:20:42.295Z,30.63
2023-08-15T11:21:42.258Z,30.63
2023-08-15T11:22:42.247Z,30.73
2023-08-15T11:23:42.249Z,30.81
2023-08-15T11:24:42.269Z,30.86
2023-08-15T11:25:42.297Z,30.94
2023-08-15T11:26:42.220Z,30.97
2023-08-15T11:27:42.209Z,30.86
2023-08-15T11:28:42.189Z,30.96
2023-08-15T11:29:42.231Z,30.91
2023-08-15T11:30:42.221Z,31.04
2023-08-15T11:31:42.478Z,31.00
2023-08-15T11:32:42.213Z,30.90
2023-08-15T11:33:42.164Z,30.97
2023-08-15T11:34:42.544Z,31.04
2023-08-15T11:35:42.185Z,31.05
2023-08-15T11:36:42.126Z,31.04
2023-08-15T11:37:42.146Z,31.05
2023-08-15T11:38:42.125Z,31.13
2023-08-15T11:39:42.196Z,31.18
2023-08-15T11:40:42.092Z,31.38
2023-08-15T11:41:42.098Z,31.31
2023-08-15T11:42:42.080Z,31.30
2023-08-15T11:43:42.066Z,31.30
2023-08-15T11:44:42.093Z,31.35
2023-08-15T11:45:42.092Z,31.38
2023-08-15T11:47:43.067Z,31.54
2023-08-15T11:48:42.065Z,31.60
2023-08-15T11:49:46.528Z,31.74
2023-08-15T11:50:44.813Z,31.94
2023-08-15T11:51:42.995Z,31.79
2023-08-15T11:52:41.972Z,31.69
2023-08-15T11:53:41.984Z,31.91
2023-08-15T11:54:41.985Z,31.92
2023-08-15T11:55:41.947Z,31.90
2023-08-15T11:56:41.954Z,31.87
2023-08-15T11:57:42.122Z,32.03
2023-08-15T11:58:41.946Z,32.07
2023-08-15T11:59:41.917Z,32.06
2023-08-15T12:00:41.916Z,31.98
2023-08-15T12:01:41.967Z,31.95
2023-08-15T12:02:42.121Z,32.07
2023-08-15T12:03:41.995Z,32.14
2023-08-15T12:04:41.873Z,31.84
2023-08-15T12:05:41.849Z,31.91
2023-08-15T12:06:41.872Z,32.10
2023-08-15T12:07:42.063Z,32.24
2023-08-15T12:08:41.842Z,32.40
2023-08-15T12:09:41.817Z,32.49
2023-08-15T12:10:42.639Z,32.50
2023-08-15T12:11:42.866Z,32.44
2023-08-15T12:12:42.043Z,32.25
2023-08-15T12:13:41.826Z,32.12
2023-08-15T12:14:50.900Z,31.68
2023-08-15T12:15:43.813Z,31.50
2023-08-15T12:16:41.826Z,31.53
2023-08-15T12:17:41.732Z,31.65
2023-08-15T12:18:41.769Z,31.64
2023-08-15T12:19:41.714Z,31.50
2023-08-15T12:20:41.725Z,31.28
2023-08-15T12:21:41.758Z,31.32
2023-08-15T12:22:41.693Z,31.32
2023-08-15T12:23:41.674Z,31.31
2023-08-15T12:24:41.675Z,31.19
2023-08-15T12:25:41.680Z,31.12
2023-08-15T12:26:41.695Z,31.04
2023-08-15T12:27:41.637Z,30.97
2023-08-15T12:28:42.704Z,30.94
2023-08-15T12:29:49.371Z,30.81
2023-08-15T12:30:41.624Z,30.75
2023-08-15T12:31:41.630Z,30.67
2023-08-15T12:32:41.642Z,30.56
2023-08-15T12:33:47.823Z,30.53
2023-08-15T12:34:41.712Z,30.63
2023-08-15T12:35:41.589Z,30.57
2023-08-15T12:36:41.571Z,30.53
2023-08-15T12:37:41.559Z,30.51
2023-08-15T12:38:41.551Z,30.34
2023-08-15T12:39:41.794Z,30.10
2023-08-15T12:40:41.548Z,29.94
2023-08-15T12:41:41.520Z,29.89
2023-08-15T12:42:41.500Z,29.76
2023-08-15T12:43:41.514Z,29.62
2023-08-15T12:44:41.545Z,29.41
2023-08-15T12:45:41.652Z,29.21
2023-08-15T12:46:41.481Z,29.14
2023-08-15T12:47:41.478Z,28.92
2023-08-15T12:48:41.443Z,28.76
2023-08-15T12:49:41.665Z,28.70
2023-08-15T12:50:48.169Z,28.62
2023-08-15T12:51:41.423Z,28.58
2023-08-15T12:52:41.468Z,28.50
2023-08-15T12:53:41.415Z,28.52